sensor_id;sensor_type;location;lat;lon;timestamp;P1;durP1;ratioP1;P2;durP2;ratioP2
69502;SDS011;56704;54.242;12.442;2022-10-17T00:02:06;5.97;;;2.05;;
69502;SDS011;56704;54.242;12.442;2022-10-17T00:04:33;8.07;;;2.22;;
69502;SDS011;56704;54.242;12.442;2022-10-17T00:06:59;5.68;;;1.88;;
69502;SDS011;56704;54.242;12.442;2022-10-17T00:09:26;4.53;;;1.90;;
69502;SDS011;56704;54.242;12.442;2022-10-17T00:11:52;6.00;;;1.83;;
69502;SDS011;56704;54.242;12.442;2022-10-17T00:14:19;8.55;;;2.53;;
69502;SDS011;56704;54.242;12.442;2022-10-17T00:16:47;7.72;;;2.33;;
69502;SDS011;56704;54.242;12.442;2022-10-17T00:19:13;5.95;;;2.30;;
69502;SDS011;56704;54.242;12.442;2022-10-17T00:21:40;3.88;;;1.95;;
69502;SDS011;56704;54.242;12.442;2022-10-17T00:24:06;5.30;;;1.97;;
69502;SDS011;56704;54.242;12.442;2022-10-17T00:26:32;5.10;;;2.20;;
69502;SDS011;56704;54.242;12.442;2022-10-17T00:28:59;7.45;;;2.22;;
69502;SDS011;56704;54.242;12.442;2022-10-17T00:31:25;6.10;;;2.05;;
69502;SDS011;56704;54.242;12.442;2022-10-17T00:33:53;6.53;;;2.08;;
69502;SDS011;56704;54.242;12.442;2022-10-17T00:36:20;5.50;;;1.73;;
69502;SDS011;56704;54.242;12.442;2022-10-17T00:38:49;4.85;;;2.15;;
69502;SDS011;56704;54.242;12.442;2022-10-17T00:41:18;5.80;;;2.10;;
69502;SDS011;56704;54.242;12.442;2022-10-17T00:43:53;8.13;;;2.30;;
69502;SDS011;56704;54.242;12.442;2022-10-17T00:46:23;7.63;;;2.20;;
69502;SDS011;56704;54.242;12.442;2022-10-17T00:48:51;6.33;;;1.70;;
69502;SDS011;56704;54.242;12.442;2022-10-17T00:51:25;6.75;;;1.83;;
69502;SDS011;56704;54.242;12.442;2022-10-17T00:53:57;6.18;;;1.80;;
69502;SDS011;56704;54.242;12.442;2022-10-17T00:56:24;6.05;;;1.63;;
69502;SDS011;56704;54.242;12.442;2022-10-17T00:58:51;8.35;;;2.30;;
69502;SDS011;56704;54.242;12.442;2022-10-17T01:01:18;10.00;;;2.13;;
69502;SDS011;56704;54.242;12.442;2022-10-17T01:03:44;5.93;;;2.30;;
69502;SDS011;56704;54.242;12.442;2022-10-17T01:06:12;6.25;;;2.13;;
69502;SDS011;56704;54.242;12.442;2022-10-17T01:08:39;5.03;;;1.90;;
69502;SDS011;56704;54.242;12.442;2022-10-17T01:11:08;7.07;;;1.90;;
69502;SDS011;56704;54.242;12.442;2022-10-17T01:13:44;6.63;;;1.90;;
69502;SDS011;56704;54.242;12.442;2022-10-17T01:16:15;8.25;;;1.88;;
69502;SDS011;56704;54.242;12.442;2022-10-17T01:18:52;5.05;;;1.83;;
69502;SDS011;56704;54.242;12.442;2022-10-17T01:21:29;6.45;;;1.92;;
69502;SDS011;56704;54.242;12.442;2022-10-17T01:27:14;4.37;;;1.90;;
69502;SDS011;56704;54.242;12.442;2022-10-17T01:30:13;7.05;;;2.50;;
69502;SDS011;56704;54.242;12.442;2022-10-17T01:33:18;5.70;;;2.50;;
69502;SDS011;56704;54.242;12.442;2022-10-17T01:35:54;4.95;;;2.20;;
69502;SDS011;56704;54.242;12.442;2022-10-17T01:38:25;4.93;;;2.40;;
69502;SDS011;56704;54.242;12.442;2022-10-17T01:40:59;5.20;;;2.37;;
69502;SDS011;56704;54.242;12.442;2022-10-17T01:43:31;4.30;;;2.35;;
69502;SDS011;56704;54.242;12.442;2022-10-17T01:46:05;4.75;;;2.67;;
69502;SDS011;56704;54.242;12.442;2022-10-17T01:48:36;8.00;;;3.20;;
69502;SDS011;56704;54.242;12.442;2022-10-17T01:51:08;7.35;;;3.42;;
69502;SDS011;56704;54.242;12.442;2022-10-17T01:53:42;7.37;;;3.80;;
69502;SDS011;56704;54.242;12.442;2022-10-17T01:56:13;7.50;;;3.72;;
69502;SDS011;56704;54.242;12.442;2022-10-17T01:58:42;6.00;;;2.95;;
69502;SDS011;56704;54.242;12.442;2022-10-17T02:01:12;7.82;;;3.30;;
69502;SDS011;56704;54.242;12.442;2022-10-17T02:03:40;6.65;;;2.90;;
69502;SDS011;56704;54.242;12.442;2022-10-17T02:06:10;6.37;;;3.10;;
69502;SDS011;56704;54.242;12.442;2022-10-17T02:08:39;6.22;;;2.83;;
69502;SDS011;56704;54.242;12.442;2022-10-17T02:11:08;6.90;;;3.13;;
69502;SDS011;56704;54.242;12.442;2022-10-17T02:13:48;6.47;;;3.20;;
69502;SDS011;56704;54.242;12.442;2022-10-17T02:16:29;8.57;;;3.75;;
69502;SDS011;56704;54.242;12.442;2022-10-17T02:19:04;7.87;;;3.97;;
69502;SDS011;56704;54.242;12.442;2022-10-17T02:21:41;6.72;;;3.58;;
69502;SDS011;56704;54.242;12.442;2022-10-17T02:24:16;7.13;;;3.67;;
69502;SDS011;56704;54.242;12.442;2022-10-17T02:26:48;8.65;;;4.25;;
69502;SDS011;56704;54.242;12.442;2022-10-17T02:29:21;8.60;;;3.70;;
69502;SDS011;56704;54.242;12.442;2022-10-17T02:31:53;8.27;;;3.70;;
69502;SDS011;56704;54.242;12.442;2022-10-17T02:34:25;8.63;;;3.67;;
69502;SDS011;56704;54.242;12.442;2022-10-17T02:36:55;7.53;;;3.53;;
69502;SDS011;56704;54.242;12.442;2022-10-17T02:39:24;8.57;;;3.38;;
69502;SDS011;56704;54.242;12.442;2022-10-17T02:41:53;7.65;;;3.58;;
69502;SDS011;56704;54.242;12.442;2022-10-17T02:44:22;8.27;;;3.57;;
69502;SDS011;56704;54.242;12.442;2022-10-17T02:46:51;6.72;;;2.95;;
69502;SDS011;56704;54.242;12.442;2022-10-17T02:49:26;8.88;;;3.47;;
69502;SDS011;56704;54.242;12.442;2022-10-17T02:51:58;8.55;;;3.70;;
69502;SDS011;56704;54.242;12.442;2022-10-17T02:54:30;9.30;;;3.50;;
69502;SDS011;56704;54.242;12.442;2022-10-17T02:57:05;7.83;;;4.10;;
69502;SDS011;56704;54.242;12.442;2022-10-17T02:59:34;9.70;;;3.88;;
69502;SDS011;56704;54.242;12.442;2022-10-17T03:02:02;7.97;;;3.75;;
69502;SDS011;56704;54.242;12.442;2022-10-17T03:04:32;7.95;;;3.40;;
69502;SDS011;56704;54.242;12.442;2022-10-17T03:06:59;7.47;;;3.67;;
69502;SDS011;56704;54.242;12.442;2022-10-17T03:09:26;8.73;;;3.83;;
69502;SDS011;56704;54.242;12.442;2022-10-17T03:11:52;6.13;;;3.45;;
69502;SDS011;56704;54.242;12.442;2022-10-17T03:14:19;7.85;;;4.50;;
69502;SDS011;56704;54.242;12.442;2022-10-17T03:16:45;11.55;;;4.47;;
69502;SDS011;56704;54.242;12.442;2022-10-17T03:19:12;11.45;;;4.18;;
69502;SDS011;56704;54.242;12.442;2022-10-17T03:21:42;8.03;;;4.50;;
69502;SDS011;56704;54.242;12.442;2022-10-17T03:24:08;6.97;;;4.03;;
69502;SDS011;56704;54.242;12.442;2022-10-17T03:26:35;13.93;;;4.70;;
69502;SDS011;56704;54.242;12.442;2022-10-17T03:29:02;9.25;;;4.35;;
69502;SDS011;56704;54.242;12.442;2022-10-17T03:31:28;10.13;;;4.25;;
69502;SDS011;56704;54.242;12.442;2022-10-17T03:33:55;8.83;;;3.87;;
69502;SDS011;56704;54.242;12.442;2022-10-17T03:36:21;10.18;;;3.90;;
69502;SDS011;56704;54.242;12.442;2022-10-17T03:38:49;6.65;;;3.75;;
69502;SDS011;56704;54.242;12.442;2022-10-17T03:41:18;8.40;;;3.90;;
69502;SDS011;56704;54.242;12.442;2022-10-17T03:43:45;7.18;;;3.58;;
69502;SDS011;56704;54.242;12.442;2022-10-17T03:46:12;8.37;;;3.50;;
69502;SDS011;56704;54.242;12.442;2022-10-17T03:48:38;7.32;;;3.47;;
69502;SDS011;56704;54.242;12.442;2022-10-17T03:51:05;9.27;;;3.40;;
69502;SDS011;56704;54.242;12.442;2022-10-17T03:53:33;7.38;;;3.42;;
69502;SDS011;56704;54.242;12.442;2022-10-17T03:56:08;7.55;;;3.13;;
69502;SDS011;56704;54.242;12.442;2022-10-17T03:58:36;6.47;;;3.57;;
69502;SDS011;56704;54.242;12.442;2022-10-17T04:01:03;7.03;;;3.20;;
69502;SDS011;56704;54.242;12.442;2022-10-17T04:03:30;6.85;;;3.47;;
69502;SDS011;56704;54.242;12.442;2022-10-17T04:05:57;7.00;;;3.40;;
69502;SDS011;56704;54.242;12.442;2022-10-17T04:08:25;9.52;;;3.60;;
69502;SDS011;56704;54.242;12.442;2022-10-17T04:10:51;10.27;;;3.37;;
69502;SDS011;56704;54.242;12.442;2022-10-17T04:13:19;7.63;;;3.50;;
69502;SDS011;56704;54.242;12.442;2022-10-17T04:15:52;7.65;;;3.53;;
69502;SDS011;56704;54.242;12.442;2022-10-17T04:18:19;6.82;;;3.90;;
69502;SDS011;56704;54.242;12.442;2022-10-17T04:20:46;10.25;;;3.90;;
69502;SDS011;56704;54.242;12.442;2022-10-17T04:23:12;10.13;;;3.93;;
69502;SDS011;56704;54.242;12.442;2022-10-17T04:25:39;9.45;;;4.65;;
69502;SDS011;56704;54.242;12.442;2022-10-17T04:28:05;10.43;;;4.60;;
69502;SDS011;56704;54.242;12.442;2022-10-17T04:30:33;11.80;;;4.72;;
69502;SDS011;56704;54.242;12.442;2022-10-17T04:33:00;10.40;;;4.15;;
69502;SDS011;56704;54.242;12.442;2022-10-17T04:35:26;9.40;;;3.87;;
69502;SDS011;56704;54.242;12.442;2022-10-17T04:37:53;14.20;;;4.53;;
69502;SDS011;56704;54.242;12.442;2022-10-17T04:40:19;8.82;;;4.47;;
69502;SDS011;56704;54.242;12.442;2022-10-17T04:42:46;11.00;;;3.90;;
69502;SDS011;56704;54.242;12.442;2022-10-17T04:45:13;9.82;;;4.30;;
69502;SDS011;56704;54.242;12.442;2022-10-17T04:47:41;9.50;;;3.77;;
69502;SDS011;56704;54.242;12.442;2022-10-17T04:50:07;8.10;;;4.45;;
69502;SDS011;56704;54.242;12.442;2022-10-17T04:52:34;8.60;;;3.33;;
69502;SDS011;56704;54.242;12.442;2022-10-17T04:55:01;6.93;;;3.30;;
69502;SDS011;56704;54.242;12.442;2022-10-17T04:57:28;8.15;;;4.05;;
69502;SDS011;56704;54.242;12.442;2022-10-17T04:59:54;9.27;;;4.07;;
69502;SDS011;56704;54.242;12.442;2022-10-17T05:02:21;9.25;;;3.78;;
69502;SDS011;56704;54.242;12.442;2022-10-17T05:04:49;6.50;;;3.25;;
69502;SDS011;56704;54.242;12.442;2022-10-17T05:07:15;7.10;;;3.20;;
69502;SDS011;56704;54.242;12.442;2022-10-17T05:09:42;7.43;;;3.17;;
69502;SDS011;56704;54.242;12.442;2022-10-17T05:12:08;6.57;;;3.17;;
69502;SDS011;56704;54.242;12.442;2022-10-17T05:14:35;8.93;;;3.80;;
69502;SDS011;56704;54.242;12.442;2022-10-17T05:17:01;6.40;;;3.40;;
69502;SDS011;56704;54.242;12.442;2022-10-17T05:19:28;8.52;;;2.95;;
69502;SDS011;56704;54.242;12.442;2022-10-17T05:21:55;7.25;;;3.22;;
69502;SDS011;56704;54.242;12.442;2022-10-17T05:24:22;6.67;;;2.77;;
69502;SDS011;56704;54.242;12.442;2022-10-17T05:26:49;6.20;;;2.60;;
69502;SDS011;56704;54.242;12.442;2022-10-17T05:29:16;7.15;;;3.30;;
69502;SDS011;56704;54.242;12.442;2022-10-17T05:31:42;5.45;;;2.53;;
69502;SDS011;56704;54.242;12.442;2022-10-17T05:34:09;11.32;;;3.50;;
69502;SDS011;56704;54.242;12.442;2022-10-17T05:36:35;7.03;;;2.53;;
69502;SDS011;56704;54.242;12.442;2022-10-17T05:39:03;6.75;;;2.63;;
69502;SDS011;56704;54.242;12.442;2022-10-17T05:41:30;8.55;;;2.83;;
69502;SDS011;56704;54.242;12.442;2022-10-17T05:43:56;7.97;;;2.92;;
69502;SDS011;56704;54.242;12.442;2022-10-17T05:46:23;6.13;;;2.40;;
69502;SDS011;56704;54.242;12.442;2022-10-17T05:48:49;5.70;;;2.50;;
69502;SDS011;56704;54.242;12.442;2022-10-17T05:51:16;5.55;;;2.75;;
69502;SDS011;56704;54.242;12.442;2022-10-17T05:53:42;8.27;;;2.78;;
69502;SDS011;56704;54.242;12.442;2022-10-17T05:56:10;5.70;;;3.00;;
69502;SDS011;56704;54.242;12.442;2022-10-17T05:58:39;5.40;;;2.72;;
69502;SDS011;56704;54.242;12.442;2022-10-17T06:01:06;6.23;;;2.60;;
69502;SDS011;56704;54.242;12.442;2022-10-17T06:03:35;6.75;;;2.85;;
69502;SDS011;56704;54.242;12.442;2022-10-17T06:06:02;6.70;;;2.72;;
69502;SDS011;56704;54.242;12.442;2022-10-17T06:08:29;8.43;;;2.50;;
69502;SDS011;56704;54.242;12.442;2022-10-17T06:10:55;7.30;;;2.60;;
69502;SDS011;56704;54.242;12.442;2022-10-17T06:13:23;5.03;;;2.60;;
69502;SDS011;56704;54.242;12.442;2022-10-17T06:15:50;5.55;;;2.88;;
69502;SDS011;56704;54.242;12.442;2022-10-17T06:18:16;6.60;;;3.22;;
69502;SDS011;56704;54.242;12.442;2022-10-17T06:20:43;7.78;;;2.17;;
69502;SDS011;56704;54.242;12.442;2022-10-17T06:23:09;5.93;;;2.80;;
69502;SDS011;56704;54.242;12.442;2022-10-17T06:25:36;6.20;;;2.40;;
69502;SDS011;56704;54.242;12.442;2022-10-17T06:28:02;6.93;;;2.65;;
69502;SDS011;56704;54.242;12.442;2022-10-17T06:30:31;9.18;;;3.10;;
69502;SDS011;56704;54.242;12.442;2022-10-17T06:32:57;5.45;;;2.83;;
69502;SDS011;56704;54.242;12.442;2022-10-17T06:35:24;5.70;;;2.45;;
69502;SDS011;56704;54.242;12.442;2022-10-17T06:37:50;7.20;;;2.67;;
69502;SDS011;56704;54.242;12.442;2022-10-17T06:40:17;8.75;;;2.83;;
69502;SDS011;56704;54.242;12.442;2022-10-17T06:42:43;6.95;;;3.30;;
69502;SDS011;56704;54.242;12.442;2022-10-17T06:45:10;8.45;;;3.40;;
69502;SDS011;56704;54.242;12.442;2022-10-17T06:47:38;7.03;;;2.97;;
69502;SDS011;56704;54.242;12.442;2022-10-17T06:50:04;5.60;;;2.80;;
69502;SDS011;56704;54.242;12.442;2022-10-17T06:52:32;7.10;;;2.80;;
69502;SDS011;56704;54.242;12.442;2022-10-17T06:54:58;6.65;;;3.15;;
69502;SDS011;56704;54.242;12.442;2022-10-17T06:57:25;8.80;;;2.95;;
69502;SDS011;56704;54.242;12.442;2022-10-17T06:59:52;7.80;;;2.80;;
69502;SDS011;56704;54.242;12.442;2022-10-17T07:02:19;5.23;;;2.87;;
69502;SDS011;56704;54.242;12.442;2022-10-17T07:04:49;4.47;;;2.13;;
69502;SDS011;56704;54.242;12.442;2022-10-17T07:07:15;5.63;;;2.83;;
69502;SDS011;56704;54.242;12.442;2022-10-17T07:09:42;5.00;;;2.80;;
69502;SDS011;56704;54.242;12.442;2022-10-17T07:12:08;5.70;;;3.20;;
69502;SDS011;56704;54.242;12.442;2022-10-17T07:14:36;5.43;;;2.03;;
69502;SDS011;56704;54.242;12.442;2022-10-17T07:17:03;5.88;;;2.45;;
69502;SDS011;56704;54.242;12.442;2022-10-17T07:19:29;7.00;;;2.42;;
69502;SDS011;56704;54.242;12.442;2022-10-17T07:21:57;3.95;;;2.00;;
69502;SDS011;56704;54.242;12.442;2022-10-17T07:24:24;5.30;;;1.85;;
69502;SDS011;56704;54.242;12.442;2022-10-17T07:26:51;3.77;;;1.13;;
69502;SDS011;56704;54.242;12.442;2022-10-17T07:29:19;4.47;;;1.70;;
69502;SDS011;56704;54.242;12.442;2022-10-17T07:31:46;4.25;;;1.52;;
69502;SDS011;56704;54.242;12.442;2022-10-17T07:34:13;3.83;;;1.20;;
69502;SDS011;56704;54.242;12.442;2022-10-17T07:36:40;3.15;;;1.30;;
69502;SDS011;56704;54.242;12.442;2022-10-17T07:39:08;4.23;;;1.20;;
69502;SDS011;56704;54.242;12.442;2022-10-17T07:41:35;4.50;;;1.15;;
69502;SDS011;56704;54.242;12.442;2022-10-17T07:44:01;3.72;;;0.90;;
69502;SDS011;56704;54.242;12.442;2022-10-17T07:46:28;2.53;;;1.00;;
69502;SDS011;56704;54.242;12.442;2022-10-17T07:48:54;4.13;;;1.30;;
69502;SDS011;56704;54.242;12.442;2022-10-17T07:51:21;3.37;;;1.03;;
69502;SDS011;56704;54.242;12.442;2022-10-17T07:53:47;4.72;;;1.05;;
69502;SDS011;56704;54.242;12.442;2022-10-17T07:56:15;2.80;;;1.20;;
69502;SDS011;56704;54.242;12.442;2022-10-17T07:58:42;2.70;;;1.02;;
69502;SDS011;56704;54.242;12.442;2022-10-17T08:01:09;3.50;;;1.20;;
69502;SDS011;56704;54.242;12.442;2022-10-17T08:03:39;3.40;;;1.00;;
69502;SDS011;56704;54.242;12.442;2022-10-17T08:06:06;3.20;;;0.77;;
69502;SDS011;56704;54.242;12.442;2022-10-17T08:08:32;3.60;;;1.10;;
69502;SDS011;56704;54.242;12.442;2022-10-17T08:11:00;3.38;;;1.17;;
69502;SDS011;56704;54.242;12.442;2022-10-17T08:13:30;2.38;;;1.00;;
69502;SDS011;56704;54.242;12.442;2022-10-17T08:15:58;4.47;;;1.13;;
69502;SDS011;56704;54.242;12.442;2022-10-17T08:18:25;3.08;;;1.00;;
69502;SDS011;56704;54.242;12.442;2022-10-17T08:20:51;3.33;;;1.30;;
69502;SDS011;56704;54.242;12.442;2022-10-17T08:23:18;4.45;;;1.35;;
69502;SDS011;56704;54.242;12.442;2022-10-17T08:25:44;3.05;;;1.40;;
69502;SDS011;56704;54.242;12.442;2022-10-17T08:28:11;3.17;;;0.97;;
69502;SDS011;56704;54.242;12.442;2022-10-17T08:30:39;4.32;;;1.42;;
69502;SDS011;56704;54.242;12.442;2022-10-17T08:33:05;3.78;;;1.30;;
69502;SDS011;56704;54.242;12.442;2022-10-17T08:35:32;4.22;;;1.35;;
69502;SDS011;56704;54.242;12.442;2022-10-17T08:37:58;4.65;;;1.23;;
69502;SDS011;56704;54.242;12.442;2022-10-17T08:40:26;4.50;;;1.70;;
69502;SDS011;56704;54.242;12.442;2022-10-17T08:43:02;4.00;;;1.25;;
69502;SDS011;56704;54.242;12.442;2022-10-17T08:45:39;4.57;;;1.73;;
69502;SDS011;56704;54.242;12.442;2022-10-17T08:48:12;6.45;;;1.73;;
69502;SDS011;56704;54.242;12.442;2022-10-17T08:50:43;5.50;;;1.63;;
69502;SDS011;56704;54.242;12.442;2022-10-17T08:53:13;6.00;;;1.30;;
69502;SDS011;56704;54.242;12.442;2022-10-17T08:55:45;3.40;;;1.45;;
69502;SDS011;56704;54.242;12.442;2022-10-17T08:58:12;3.83;;;1.42;;
69502;SDS011;56704;54.242;12.442;2022-10-17T09:00:42;3.42;;;1.50;;
69502;SDS011;56704;54.242;12.442;2022-10-17T09:03:16;4.47;;;1.60;;
69502;SDS011;56704;54.242;12.442;2022-10-17T09:05:55;7.40;;;2.03;;
69502;SDS011;56704;54.242;12.442;2022-10-17T09:08:36;3.40;;;1.55;;
69502;SDS011;56704;54.242;12.442;2022-10-17T09:11:13;5.43;;;1.60;;
69502;SDS011;56704;54.242;12.442;2022-10-17T09:13:51;4.40;;;1.95;;
69502;SDS011;56704;54.242;12.442;2022-10-17T09:16:37;3.92;;;1.70;;
69502;SDS011;56704;54.242;12.442;2022-10-17T09:19:15;4.37;;;1.57;;
69502;SDS011;56704;54.242;12.442;2022-10-17T09:21:46;3.95;;;1.40;;
69502;SDS011;56704;54.242;12.442;2022-10-17T09:24:19;3.58;;;1.80;;
69502;SDS011;56704;54.242;12.442;2022-10-17T09:26:50;4.40;;;1.80;;
69502;SDS011;56704;54.242;12.442;2022-10-17T09:29:19;3.47;;;1.60;;
69502;SDS011;56704;54.242;12.442;2022-10-17T09:31:50;4.17;;;1.57;;
69502;SDS011;56704;54.242;12.442;2022-10-17T09:34:22;3.80;;;1.30;;
69502;SDS011;56704;54.242;12.442;2022-10-17T09:36:51;2.63;;;1.00;;
69502;SDS011;56704;54.242;12.442;2022-10-17T09:39:18;4.95;;;1.70;;
69502;SDS011;56704;54.242;12.442;2022-10-17T09:41:48;2.75;;;1.00;;
69502;SDS011;56704;54.242;12.442;2022-10-17T09:44:18;3.50;;;1.20;;
69502;SDS011;56704;54.242;12.442;2022-10-17T09:46:58;3.38;;;1.27;;
69502;SDS011;56704;54.242;12.442;2022-10-17T09:49:31;4.53;;;1.45;;
69502;SDS011;56704;54.242;12.442;2022-10-17T09:51:59;4.38;;;1.50;;
69502;SDS011;56704;54.242;12.442;2022-10-17T09:54:28;2.85;;;0.80;;
69502;SDS011;56704;54.242;12.442;2022-10-17T09:57:05;4.10;;;1.50;;
69502;SDS011;56704;54.242;12.442;2022-10-17T09:59:34;4.40;;;1.17;;
69502;SDS011;56704;54.242;12.442;2022-10-17T10:02:13;3.13;;;1.33;;
69502;SDS011;56704;54.242;12.442;2022-10-17T10:04:56;4.10;;;1.70;;
69502;SDS011;56704;54.242;12.442;2022-10-17T10:07:24;3.97;;;1.23;;
69502;SDS011;56704;54.242;12.442;2022-10-17T10:09:52;4.50;;;1.20;;
69502;SDS011;56704;54.242;12.442;2022-10-17T10:12:21;3.67;;;1.60;;
69502;SDS011;56704;54.242;12.442;2022-10-17T10:14:49;4.65;;;1.38;;
69502;SDS011;56704;54.242;12.442;2022-10-17T10:17:27;3.13;;;1.00;;
69502;SDS011;56704;54.242;12.442;2022-10-17T10:19:59;3.53;;;1.40;;
69502;SDS011;56704;54.242;12.442;2022-10-17T10:22:26;3.93;;;1.50;;
69502;SDS011;56704;54.242;12.442;2022-10-17T10:25:11;4.35;;;1.42;;
69502;SDS011;56704;54.242;12.442;2022-10-17T10:27:42;5.00;;;1.63;;
69502;SDS011;56704;54.242;12.442;2022-10-17T10:30:15;4.53;;;1.27;;
69502;SDS011;56704;54.242;12.442;2022-10-17T10:32:46;3.40;;;1.50;;
69502;SDS011;56704;54.242;12.442;2022-10-17T10:35:17;3.80;;;1.50;;
69502;SDS011;56704;54.242;12.442;2022-10-17T10:37:46;4.18;;;1.73;;
69502;SDS011;56704;54.242;12.442;2022-10-17T10:40:15;4.70;;;1.70;;
69502;SDS011;56704;54.242;12.442;2022-10-17T10:42:45;3.05;;;1.38;;
69502;SDS011;56704;54.242;12.442;2022-10-17T10:45:14;3.65;;;1.40;;
69502;SDS011;56704;54.242;12.442;2022-10-17T10:47:50;3.87;;;1.50;;
69502;SDS011;56704;54.242;12.442;2022-10-17T10:50:25;3.63;;;1.83;;
69502;SDS011;56704;54.242;12.442;2022-10-17T10:53:04;3.80;;;1.70;;
69502;SDS011;56704;54.242;12.442;2022-10-17T10:55:39;3.40;;;1.25;;
69502;SDS011;56704;54.242;12.442;2022-10-17T10:58:14;5.05;;;1.73;;
69502;SDS011;56704;54.242;12.442;2022-10-17T11:00:52;3.90;;;1.90;;
69502;SDS011;56704;54.242;12.442;2022-10-17T11:03:22;4.07;;;1.30;;
69502;SDS011;56704;54.242;12.442;2022-10-17T11:05:54;4.43;;;1.50;;
69502;SDS011;56704;54.242;12.442;2022-10-17T11:08:25;4.75;;;1.60;;
69502;SDS011;56704;54.242;12.442;2022-10-17T11:10:58;4.28;;;1.98;;
69502;SDS011;56704;54.242;12.442;2022-10-17T11:13:33;4.43;;;1.40;;
69502;SDS011;56704;54.242;12.442;2022-10-17T11:16:09;4.50;;;1.90;;
69502;SDS011;56704;54.242;12.442;2022-10-17T11:18:45;3.13;;;1.55;;
69502;SDS011;56704;54.242;12.442;2022-10-17T11:21:17;5.45;;;1.60;;
69502;SDS011;56704;54.242;12.442;2022-10-17T11:23:51;6.18;;;2.10;;
69502;SDS011;56704;54.242;12.442;2022-10-17T11:26:26;4.13;;;1.80;;
69502;SDS011;56704;54.242;12.442;2022-10-17T11:28:56;5.45;;;1.77;;
69502;SDS011;56704;54.242;12.442;2022-10-17T11:31:26;5.82;;;2.15;;
69502;SDS011;56704;54.242;12.442;2022-10-17T11:33:58;3.78;;;1.70;;
69502;SDS011;56704;54.242;12.442;2022-10-17T11:36:28;3.40;;;1.73;;
69502;SDS011;56704;54.242;12.442;2022-10-17T11:38:58;4.37;;;1.50;;
69502;SDS011;56704;54.242;12.442;2022-10-17T11:41:28;3.95;;;2.00;;
69502;SDS011;56704;54.242;12.442;2022-10-17T11:44:00;6.80;;;1.55;;
69502;SDS011;56704;54.242;12.442;2022-10-17T11:46:31;4.60;;;2.10;;
69502;SDS011;56704;54.242;12.442;2022-10-17T11:49:05;6.07;;;1.48;;
69502;SDS011;56704;54.242;12.442;2022-10-17T11:51:37;4.73;;;1.83;;
69502;SDS011;56704;54.242;12.442;2022-10-17T11:54:10;4.55;;;2.70;;
69502;SDS011;56704;54.242;12.442;2022-10-17T11:56:40;7.35;;;2.78;;
69502;SDS011;56704;54.242;12.442;2022-10-17T12:02:11;5.53;;;1.83;;
69502;SDS011;56704;54.242;12.442;2022-10-17T12:04:47;5.90;;;1.77;;
69502;SDS011;56704;54.242;12.442;2022-10-17T12:07:24;3.60;;;1.75;;
69502;SDS011;56704;54.242;12.442;2022-10-17T12:10:03;7.07;;;1.90;;
69502;SDS011;56704;54.242;12.442;2022-10-17T12:12:45;3.15;;;1.55;;
69502;SDS011;56704;54.242;12.442;2022-10-17T12:17:56;4.60;;;1.50;;
69502;SDS011;56704;54.242;12.442;2022-10-17T12:20:28;4.07;;;2.25;;
69502;SDS011;56704;54.242;12.442;2022-10-17T12:23:05;4.28;;;2.05;;
69502;SDS011;56704;54.242;12.442;2022-10-17T12:25:47;4.22;;;2.05;;
69502;SDS011;56704;54.242;12.442;2022-10-17T12:28:16;5.07;;;1.83;;
69502;SDS011;56704;54.242;12.442;2022-10-17T12:30:48;4.40;;;1.73;;
69502;SDS011;56704;54.242;12.442;2022-10-17T12:33:17;3.50;;;1.40;;
69502;SDS011;56704;54.242;12.442;2022-10-17T12:35:48;4.50;;;2.28;;
69502;SDS011;56704;54.242;12.442;2022-10-17T12:38:20;6.20;;;1.80;;
69502;SDS011;56704;54.242;12.442;2022-10-17T12:40:49;4.72;;;1.92;;
69502;SDS011;56704;54.242;12.442;2022-10-17T12:43:37;4.47;;;2.23;;
69502;SDS011;56704;54.242;12.442;2022-10-17T12:46:10;4.80;;;1.95;;
69502;SDS011;56704;54.242;12.442;2022-10-17T12:48:59;6.07;;;2.30;;
69502;SDS011;56704;54.242;12.442;2022-10-17T12:51:29;4.93;;;2.17;;
69502;SDS011;56704;54.242;12.442;2022-10-17T12:54:47;3.85;;;1.63;;
69502;SDS011;56704;54.242;12.442;2022-10-17T12:57:19;4.50;;;2.30;;
69502;SDS011;56704;54.242;12.442;2022-10-17T12:59:48;5.35;;;2.22;;
69502;SDS011;56704;54.242;12.442;2022-10-17T13:02:17;5.22;;;2.33;;
69502;SDS011;56704;54.242;12.442;2022-10-17T13:04:46;6.32;;;2.08;;
69502;SDS011;56704;54.242;12.442;2022-10-17T13:07:17;5.95;;;2.78;;
69502;SDS011;56704;54.242;12.442;2022-10-17T13:09:46;4.77;;;2.60;;
69502;SDS011;56704;54.242;12.442;2022-10-17T13:12:17;3.15;;;1.50;;
69502;SDS011;56704;54.242;12.442;2022-10-17T13:14:48;4.43;;;2.90;;
69502;SDS011;56704;54.242;12.442;2022-10-17T13:17:20;4.10;;;1.73;;
69502;SDS011;56704;54.242;12.442;2022-10-17T13:19:49;5.00;;;1.95;;
69502;SDS011;56704;54.242;12.442;2022-10-17T13:22:18;7.00;;;2.40;;
69502;SDS011;56704;54.242;12.442;2022-10-17T13:24:47;5.88;;;2.05;;
69502;SDS011;56704;54.242;12.442;2022-10-17T13:27:21;4.95;;;2.30;;
69502;SDS011;56704;54.242;12.442;2022-10-17T13:29:49;3.10;;;1.45;;
69502;SDS011;56704;54.242;12.442;2022-10-17T13:32:16;9.82;;;2.25;;
69502;SDS011;56704;54.242;12.442;2022-10-17T13:34:43;9.70;;;2.67;;
69502;SDS011;56704;54.242;12.442;2022-10-17T13:37:10;5.13;;;2.33;;
69502;SDS011;56704;54.242;12.442;2022-10-17T13:39:41;5.90;;;2.45;;
69502;SDS011;56704;54.242;12.442;2022-10-17T13:42:15;4.75;;;1.70;;
69502;SDS011;56704;54.242;12.442;2022-10-17T13:44:46;4.63;;;1.67;;
69502;SDS011;56704;54.242;12.442;2022-10-17T13:47:19;4.83;;;2.00;;
69502;SDS011;56704;54.242;12.442;2022-10-17T13:49:47;3.38;;;1.73;;
69502;SDS011;56704;54.242;12.442;2022-10-17T13:52:15;5.80;;;2.30;;
69502;SDS011;56704;54.242;12.442;2022-10-17T13:54:46;3.45;;;1.40;;
69502;SDS011;56704;54.242;12.442;2022-10-17T13:57:17;7.38;;;2.70;;
69502;SDS011;56704;54.242;12.442;2022-10-17T13:59:46;5.37;;;2.40;;
69502;SDS011;56704;54.242;12.442;2022-10-17T14:02:16;5.32;;;2.40;;
69502;SDS011;56704;54.242;12.442;2022-10-17T14:04:45;5.47;;;2.15;;
69502;SDS011;56704;54.242;12.442;2022-10-17T14:07:18;4.85;;;2.00;;
69502;SDS011;56704;54.242;12.442;2022-10-17T14:09:52;5.03;;;2.10;;
69502;SDS011;56704;54.242;12.442;2022-10-17T14:12:19;5.47;;;2.20;;
69502;SDS011;56704;54.242;12.442;2022-10-17T14:14:47;5.65;;;1.80;;
69502;SDS011;56704;54.242;12.442;2022-10-17T14:17:16;7.03;;;2.20;;
69502;SDS011;56704;54.242;12.442;2022-10-17T14:19:49;6.05;;;2.30;;
69502;SDS011;56704;54.242;12.442;2022-10-17T14:22:23;4.22;;;2.10;;
69502;SDS011;56704;54.242;12.442;2022-10-17T14:24:53;6.77;;;2.33;;
69502;SDS011;56704;54.242;12.442;2022-10-17T14:27:27;8.00;;;2.55;;
69502;SDS011;56704;54.242;12.442;2022-10-17T14:29:56;4.63;;;2.15;;
69502;SDS011;56704;54.242;12.442;2022-10-17T14:32:27;7.80;;;2.50;;
69502;SDS011;56704;54.242;12.442;2022-10-17T14:34:55;4.97;;;2.00;;
69502;SDS011;56704;54.242;12.442;2022-10-17T14:37:29;7.80;;;2.47;;
69502;SDS011;56704;54.242;12.442;2022-10-17T14:40:02;4.88;;;1.95;;
69502;SDS011;56704;54.242;12.442;2022-10-17T14:42:31;5.95;;;2.70;;
69502;SDS011;56704;54.242;12.442;2022-10-17T14:45:04;5.40;;;2.38;;
69502;SDS011;56704;54.242;12.442;2022-10-17T14:47:32;5.07;;;2.47;;
69502;SDS011;56704;54.242;12.442;2022-10-17T14:50:03;6.03;;;2.70;;
69502;SDS011;56704;54.242;12.442;2022-10-17T14:52:32;5.30;;;2.00;;
69502;SDS011;56704;54.242;12.442;2022-10-17T14:54:59;3.83;;;1.70;;
69502;SDS011;56704;54.242;12.442;2022-10-17T14:57:41;4.18;;;1.60;;
69502;SDS011;56704;54.242;12.442;2022-10-17T15:00:13;5.85;;;2.88;;